sensor_id;sensor_type;location;lat;lon;timestamp;temperature;humidity
77218;DHT22;66214;51.302;17.068;2023-03-03T06:04:54;-0.12;84.46
77218;DHT22;66214;51.302;17.068;2023-03-03T06:07:22;-0.13;84.27
77218;DHT22;66214;51.302;17.068;2023-03-03T06:09:50;-0.18;84.18
77218;DHT22;66214;51.302;17.068;2023-03-03T06:12:18;-0.21;83.79
77218;DHT22;66214;51.302;17.068;2023-03-03T06:14:46;-0.22;83.74
77218;DHT22;66214;51.302;17.068;2023-03-03T06:17:14;-0.22;83.92
77218;DHT22;66214;51.302;17.068;2023-03-03T06:19:42;-0.22;84.00
77218;DHT22;66214;51.302;17.068;2023-03-03T06:22:10;-0.20;83.98
77218;DHT22;66214;51.302;17.068;2023-03-03T06:24:37;-0.19;84.24
77218;DHT22;66214;51.302;17.068;2023-03-03T06:27:05;-0.21;84.32
77218;DHT22;66214;51.302;17.068;2023-03-03T06:29:34;-0.20;84.27
77218;DHT22;66214;51.302;17.068;2023-03-03T06:32:02;-0.15;84.29
77218;DHT22;66214;51.302;17.068;2023-03-03T06:34:30;-0.13;84.15
77218;DHT22;66214;51.302;17.068;2023-03-03T06:36:58;-0.13;83.85
77218;DHT22;66214;51.302;17.068;2023-03-03T06:39:26;-0.16;83.86
77218;DHT22;66214;51.302;17.068;2023-03-03T06:41:54;-0.19;83.71
77218;DHT22;66214;51.302;17.068;2023-03-03T06:44:22;-0.19;83.52
77218;DHT22;66214;51.302;17.068;2023-03-03T06:46:50;-0.21;83.57
77218;DHT22;66214;51.302;17.068;2023-03-03T06:49:18;-0.25;83.66
77218;DHT22;66214;51.302;17.068;2023-03-03T06:51:46;-0.25;83.56
77218;DHT22;66214;51.302;17.068;2023-03-03T06:54:14;-0.24;83.67
77218;DHT22;66214;51.302;17.068;2023-03-03T06:56:46;-0.23;83.49
77218;DHT22;66214;51.302;17.068;2023-03-03T06:59:18;-0.19;83.43
77218;DHT22;66214;51.302;17.068;2023-03-03T07:01:48;-0.13;84.01
77218;DHT22;66214;51.302;17.068;2023-03-03T07:07:06;-0.04;83.94
77218;DHT22;66214;51.302;17.068;2023-03-03T07:09:48;-0.02;84.02
77218;DHT22;66214;51.302;17.068;2023-03-03T07:15:28;0.02;84.35
77218;DHT22;66214;51.302;17.068;2023-03-03T07:21:20;0.15;83.92
77218;DHT22;66214;51.302;17.068;2023-03-03T07:23:52;0.13;83.80
77218;DHT22;66214;51.302;17.068;2023-03-03T07:26:23;0.10;83.65
77218;DHT22;66214;51.302;17.068;2023-03-03T07:29:00;0.06;83.70
77218;DHT22;66214;51.302;17.068;2023-03-03T07:31:50;0.04;83.56
77218;DHT22;66214;51.302;17.068;2023-03-03T07:34:39;0.04;83.33
77218;DHT22;66214;51.302;17.068;2023-03-03T07:37:17;0.08;83.14
77218;DHT22;66214;51.302;17.068;2023-03-03T07:39:58;0.10;82.95
77218;DHT22;66214;51.302;17.068;2023-03-03T07:42:38;0.12;83.07
77218;DHT22;66214;51.302;17.068;2023-03-03T07:45:27;0.17;83.32
77218;DHT22;66214;51.302;17.068;2023-03-03T07:48:23;0.19;83.57
77218;DHT22;66214;51.302;17.068;2023-03-03T07:53:52;0.23;83.83
77218;DHT22;66214;51.302;17.068;2023-03-03T07:56:34;0.29;83.98
77218;DHT22;66214;51.302;17.068;2023-03-03T08:02:06;0.33;83.75
77218;DHT22;66214;51.302;17.068;2023-03-03T08:05:00;0.35;83.55
77218;DHT22;66214;51.302;17.068;2023-03-03T08:07:28;0.35;83.42
77218;DHT22;66214;51.302;17.068;2023-03-03T08:09:58;0.36;83.22
77218;DHT22;66214;51.302;17.068;2023-03-03T08:12:38;0.33;82.99
77218;DHT22;66214;51.302;17.068;2023-03-03T08:17:49;0.36;82.70
77218;DHT22;66214;51.302;17.068;2023-03-03T08:23:13;0.32;82.54
77218;DHT22;66214;51.302;17.068;2023-03-03T08:25:43;0.29;82.54
77218;DHT22;66214;51.302;17.068;2023-03-03T08:28:12;0.27;82.82
77218;DHT22;66214;51.302;17.068;2023-03-03T08:30:41;0.28;83.08
77218;DHT22;66214;51.302;17.068;2023-03-03T08:33:10;0.29;83.22
77218;DHT22;66214;51.302;17.068;2023-03-03T08:35:39;0.30;83.35
77218;DHT22;66214;51.302;17.068;2023-03-03T08:38:07;0.31;83.39
77218;DHT22;66214;51.302;17.068;2023-03-03T08:40:36;0.34;83.43
77218;DHT22;66214;51.302;17.068;2023-03-03T08:43:05;0.38;83.49
77218;DHT22;66214;51.302;17.068;2023-03-03T08:45:33;0.42;83.49
77218;DHT22;66214;51.302;17.068;2023-03-03T08:48:02;0.41;83.35
77218;DHT22;66214;51.302;17.068;2023-03-03T08:50:30;0.43;83.11
77218;DHT22;66214;51.302;17.068;2023-03-03T08:52:59;0.46;82.81
77218;DHT22;66214;51.302;17.068;2023-03-03T08:55:27;0.50;82.75
77218;DHT22;66214;51.302;17.068;2023-03-03T08:57:54;0.55;82.86
77218;DHT22;66214;51.302;17.068;2023-03-03T09:03:31;0.50;83.02
77218;DHT22;66214;51.302;17.068;2023-03-03T09:05:59;0.54;83.17
77218;DHT22;66214;51.302;17.068;2023-03-03T09:08:27;0.57;83.25
77218;DHT22;66214;51.302;17.068;2023-03-03T09:10:55;0.64;83.35
77218;DHT22;66214;51.302;17.068;2023-03-03T09:13:23;0.71;83.36
77218;DHT22;66214;51.302;17.068;2023-03-03T09:15:51;0.74;83.26
77218;DHT22;66214;51.302;17.068;2023-03-03T09:18:40;0.76;83.23
77218;DHT22;66214;51.302;17.068;2023-03-03T09:21:16;0.80;83.10
77218;DHT22;66214;51.302;17.068;2023-03-03T09:23:53;0.81;82.97
77218;DHT22;66214;51.302;17.068;2023-03-03T09:29:45;0.88;82.63
77218;DHT22;66214;51.302;17.068;2023-03-03T09:31:57;0.94;82.39
77218;DHT22;66214;51.302;17.068;2023-03-03T09:34:45;0.94;82.22
77218;DHT22;66214;51.302;17.068;2023-03-03T09:37:19;0.90;82.10
77218;DHT22;66214;51.302;17.068;2023-03-03T09:39:51;0.89;81.98
77218;DHT22;66214;51.302;17.068;2023-03-03T09:45:05;0.85;81.82
77218;DHT22;66214;51.302;17.068;2023-03-03T09:57:15;1.04;82.40
77218;DHT22;66214;51.302;17.068;2023-03-03T10:02:54;1.26;82.26
77218;DHT22;66214;51.302;17.068;2023-03-03T10:06:00;1.30;82.11
77218;DHT22;66214;51.302;17.068;2023-03-03T10:23:14;1.55;81.46
77218;DHT22;66214;51.302;17.068;2023-03-03T10:38:17;1.71;82.33
77218;DHT22;66214;51.302;17.068;2023-03-03T10:41:16;1.78;81.64
77218;DHT22;66214;51.302;17.068;2023-03-03T10:56:07;1.69;79.91
77218;DHT22;66214;51.302;17.068;2023-03-03T10:59:00;1.66;80.17
77218;DHT22;66214;51.302;17.068;2023-03-03T11:01:55;1.67;80.08
77218;DHT22;66214;51.302;17.068;2023-03-03T11:07:25;1.88;80.13
77218;DHT22;66214;51.302;17.068;2023-03-03T11:16:10;2.14;80.49
77218;DHT22;66214;51.302;17.068;2023-03-03T11:31:37;2.11;79.87
77218;DHT22;66214;51.302;17.068;2023-03-03T11:37:05;2.06;79.55
77218;DHT22;66214;51.302;17.068;2023-03-03T11:39:38;2.00;79.65
77218;DHT22;66214;51.302;17.068;2023-03-03T11:42:13;1.99;79.66
77218;DHT22;66214;51.302;17.068;2023-03-03T11:45:18;2.04;79.59
77218;DHT22;66214;51.302;17.068;2023-03-03T11:48:21;2.14;79.43
77218;DHT22;66214;51.302;17.068;2023-03-03T11:51:01;2.15;79.44
77218;DHT22;66214;51.302;17.068;2023-03-03T11:56:43;2.25;79.46
77218;DHT22;66214;51.302;17.068;2023-03-03T12:05:29;2.38;79.10
77218;DHT22;66214;51.302;17.068;2023-03-03T12:11:47;2.30;79.15
77218;DHT22;66214;51.302;17.068;2023-03-03T12:27:51;2.42;78.71
77218;DHT22;66214;51.302;17.068;2023-03-03T12:30:39;2.40;78.37
77218;DHT22;66214;51.302;17.068;2023-03-03T12:33:45;2.37;78.35
77218;DHT22;66214;51.302;17.068;2023-03-03T12:42:56;2.88;78.83
77218;DHT22;66214;51.302;17.068;2023-03-03T12:49:02;2.84;77.57
77218;DHT22;66214;51.302;17.068;2023-03-03T12:57:05;2.48;77.56
77218;DHT22;66214;51.302;17.068;2023-03-03T13:17:28;2.36;78.21
77218;DHT22;66214;51.302;17.068;2023-03-03T13:20:29;2.40;78.38
77218;DHT22;66214;51.302;17.068;2023-03-03T13:26:21;2.54;78.18
77218;DHT22;66214;51.302;17.068;2023-03-03T13:31:47;2.56;77.42
77218;DHT22;66214;51.302;17.068;2023-03-03T13:37:47;2.54;77.20
77218;DHT22;66214;51.302;17.068;2023-03-03T13:40:25;2.52;77.05
77218;DHT22;66214;51.302;17.068;2023-03-03T13:43:21;2.47;77.08
77218;DHT22;66214;51.302;17.068;2023-03-03T13:48:42;2.45;77.09
77218;DHT22;66214;51.302;17.068;2023-03-03T13:54:35;2.44;77.42
77218;DHT22;66214;51.302;17.068;2023-03-03T14:05:49;2.49;78.38
77218;DHT22;66214;51.302;17.068;2023-03-03T14:22:48;2.66;77.34
77218;DHT22;66214;51.302;17.068;2023-03-03T14:28:21;2.55;77.08
77218;DHT22;66214;51.302;17.068;2023-03-03T14:30:55;2.48;77.22
77218;DHT22;66214;51.302;17.068;2023-03-03T14:33:25;2.44;77.19
77218;DHT22;66214;51.302;17.068;2023-03-03T14:38:47;2.36;77.74
77218;DHT22;66214;51.302;17.068;2023-03-03T14:41:16;2.35;78.07
77218;DHT22;66214;51.302;17.068;2023-03-03T14:43:58;2.33;78.36
77218;DHT22;66214;51.302;17.068;2023-03-03T14:47:05;2.34;78.43
77218;DHT22;66214;51.302;17.068;2023-03-03T14:49:48;2.39;78.74
77218;DHT22;66214;51.302;17.068;2023-03-03T14:52:18;2.43;78.95
77218;DHT22;66214;51.302;17.068;2023-03-03T14:54:52;2.47;78.80
77218;DHT22;66214;51.302;17.068;2023-03-03T15:07:53;2.39;77.69
77218;DHT22;66214;51.302;17.068;2023-03-03T15:10:27;2.31;77.71
77218;DHT22;66214;51.302;17.068;2023-03-03T15:15:50;2.24;77.78
77218;DHT22;66214;51.302;17.068;2023-03-03T15:18:29;2.21;77.84
77218;DHT22;66214;51.302;17.068;2023-03-03T15:26:12;2.20;78.48
77218;DHT22;66214;51.302;17.068;2023-03-03T15:40:26;2.34;78.00
77218;DHT22;66214;51.302;17.068;2023-03-03T15:43:19;2.29;77.55
77218;DHT22;66214;51.302;17.068;2023-03-03T15:46:27;2.22;77.33
77218;DHT22;66214;51.302;17.068;2023-03-03T16:03:17;1.74;77.47
77218;DHT22;66214;51.302;17.068;2023-03-03T16:06:04;1.71;77.62
77218;DHT22;66214;51.302;17.068;2023-03-03T16:12:20;1.75;78.20
77218;DHT22;66214;51.302;17.068;2023-03-03T16:15:30;1.78;78.43
77218;DHT22;66214;51.302;17.068;2023-03-03T16:23:50;1.74;78.18
77218;DHT22;66214;51.302;17.068;2023-03-03T16:29:29;1.66;77.93
77218;DHT22;66214;51.302;17.068;2023-03-03T16:32:16;1.62;77.79
77218;DHT22;66214;51.302;17.068;2023-03-03T16:34:55;1.55;77.82
77218;DHT22;66214;51.302;17.068;2023-03-03T16:37:44;1.50;77.83
77218;DHT22;66214;51.302;17.068;2023-03-03T16:40:56;1.45;77.90
77218;DHT22;66214;51.302;17.068;2023-03-03T16:43:31;1.41;77.96
77218;DHT22;66214;51.302;17.068;2023-03-03T16:52:46;1.41;79.94
77218;DHT22;66214;51.302;17.068;2023-03-03T16:55:17;1.44;80.12
77218;DHT22;66214;51.302;17.068;2023-03-03T17:01:00;1.49;80.25
77218;DHT22;66214;51.302;17.068;2023-03-03T17:03:58;1.49;80.22
77218;DHT22;66214;51.302;17.068;2023-03-03T17:44:17;1.39;80.15
77218;DHT22;66214;51.302;17.068;2023-03-03T17:46:54;1.36;79.92
77218;DHT22;66214;51.302;17.068;2023-03-03T17:56:19;1.07;80.07
77218;DHT22;66214;51.302;17.068;2023-03-03T18:01:48;0.98;79.84
77218;DHT22;66214;51.302;17.068;2023-03-03T18:36:53;0.98;80.37
77218;DHT22;66214;51.302;17.068;2023-03-03T18:40:15;0.94;80.32
77218;DHT22;66214;51.302;17.068;2023-03-03T18:42:40;0.91;80.59
77218;DHT22;66214;51.302;17.068;2023-03-03T19:05:20;1.02;81.65
77218;DHT22;66214;51.302;17.068;2023-03-03T19:08:02;1.00;81.36
77218;DHT22;66214;51.302;17.068;2023-03-03T19:10:53;0.98;81.25
77218;DHT22;66214;51.302;17.068;2023-03-03T19:16:05;0.90;81.15
77218;DHT22;66214;51.302;17.068;2023-03-03T19:18:58;0.87;80.88
77218;DHT22;66214;51.302;17.068;2023-03-03T19:21:29;0.85;80.87
77218;DHT22;66214;51.302;17.068;2023-03-03T19:26:35;0.81;80.94
77218;DHT22;66214;51.302;17.068;2023-03-03T19:38:25;0.85;82.88
77218;DHT22;66214;51.302;17.068;2023-03-03T19:45:17;0.98;83.03
77218;DHT22;66214;51.302;17.068;2023-03-03T19:47:37;1.05;82.92
77218;DHT22;66214;51.302;17.068;2023-03-03T19:50:14;1.04;82.72
77218;DHT22;66214;51.302;17.068;2023-03-03T20:01:35;1.00;82.39
77218;DHT22;66214;51.302;17.068;2023-03-03T20:04:39;0.94;82.29
77218;DHT22;66214;51.302;17.068;2023-03-03T20:07:41;0.94;82.27
77218;DHT22;66214;51.302;17.068;2023-03-03T20:19:15;0.94;83.21
77218;DHT22;66214;51.302;17.068;2023-03-03T20:27:59;1.03;83.51
77218;DHT22;66214;51.302;17.068;2023-03-03T20:33:39;0.98;83.00
77218;DHT22;66214;51.302;17.068;2023-03-03T20:42:31;0.84;82.87
77218;DHT22;66214;51.302;17.068;2023-03-03T20:51:18;0.73;83.46
77218;DHT22;66214;51.302;17.068;2023-03-03T21:02:57;0.72;83.94
77218;DHT22;66214;51.302;17.068;2023-03-03T21:05:27;0.73;83.76
77218;DHT22;66214;51.302;17.068;2023-03-03T21:07:57;0.73;83.53
77218;DHT22;66214;51.302;17.068;2023-03-03T21:10:29;0.71;83.30
77218;DHT22;66214;51.302;17.068;2023-03-03T21:15:54;0.70;83.17
77218;DHT22;66214;51.302;17.068;2023-03-03T21:18:29;0.68;83.03
77218;DHT22;66214;51.302;17.068;2023-03-03T21:20:58;0.67;83.04
77218;DHT22;66214;51.302;17.068;2023-03-03T21:23:25;0.67;83.32
77218;DHT22;66214;51.302;17.068;2023-03-03T21:25:56;0.69;83.58
77218;DHT22;66214;51.302;17.068;2023-03-03T21:28:26;0.70;83.82
77218;DHT22;66214;51.302;17.068;2023-03-03T21:38:52;0.82;83.93
77218;DHT22;66214;51.302;17.068;2023-03-03T21:41:20;0.80;83.66
77218;DHT22;66214;51.302;17.068;2023-03-03T21:43:49;0.79;83.72
77218;DHT22;66214;51.302;17.068;2023-03-03T21:46:20;0.73;83.72
77218;DHT22;66214;51.302;17.068;2023-03-03T21:48:50;0.66;83.82
77218;DHT22;66214;51.302;17.068;2023-03-03T21:51:18;0.59;83.92
77218;DHT22;66214;51.302;17.068;2023-03-03T21:53:47;0.58;84.06
77218;DHT22;66214;51.302;17.068;2023-03-03T21:59:41;0.63;84.61
77218;DHT22;66214;51.302;17.068;2023-03-03T22:02:10;0.66;84.53
77218;DHT22;66214;51.302;17.068;2023-03-03T22:04:38;0.65;84.30
77218;DHT22;66214;51.302;17.068;2023-03-03T22:07:07;0.65;83.91
77218;DHT22;66214;51.302;17.068;2023-03-03T22:09:35;0.62;83.64
77218;DHT22;66214;51.302;17.068;2023-03-03T22:12:05;0.59;83.40
77218;DHT22;66214;51.302;17.068;2023-03-03T22:14:34;0.56;83.26
77218;DHT22;66214;51.302;17.068;2023-03-03T22:17:28;0.51;83.41
77218;DHT22;66214;51.302;17.068;2023-03-03T22:19:56;0.48;83.25
77218;DHT22;66214;51.302;17.068;2023-03-03T22:22:24;0.44;83.15
77218;DHT22;66214;51.302;17.068;2023-03-03T22:24:52;0.43;83.57
77218;DHT22;66214;51.302;17.068;2023-03-03T22:27:20;0.43;83.71
77218;DHT22;66214;51.302;17.068;2023-03-03T22:29:48;0.46;84.01
77218;DHT22;66214;51.302;17.068;2023-03-03T22:32:16;0.48;84.31
77218;DHT22;66214;51.302;17.068;2023-03-03T22:34:44;0.51;84.42
77218;DHT22;66214;51.302;17.068;2023-03-03T22:37:12;0.54;84.51
77218;DHT22;66214;51.302;17.068;2023-03-03T22:39:40;0.56;84.64
77218;DHT22;66214;51.302;17.068;2023-03-03T22:42:08;0.56;84.33
77218;DHT22;66214;51.302;17.068;2023-03-03T22:44:37;0.55;84.09
77218;DHT22;66214;51.302;17.068;2023-03-03T22:47:06;0.55;83.96
77218;DHT22;66214;51.302;17.068;2023-03-03T22:49:34;0.54;83.82
77218;DHT22;66214;51.302;17.068;2023-03-03T22:52:02;0.51;83.92
77218;DHT22;66214;51.302;17.068;2023-03-03T22:54:30;0.47;83.84
77218;DHT22;66214;51.302;17.068;2023-03-03T22:56:58;0.47;83.89
77218;DHT22;66214;51.302;17.068;2023-03-03T22:59:26;0.50;84.11
77218;DHT22;66214;51.302;17.068;2023-03-03T23:01:53;0.52;84.49
77218;DHT22;66214;51.302;17.068;2023-03-03T23:04:22;0.55;84.61
77218;DHT22;66214;51.302;17.068;2023-03-03T23:06:50;0.59;84.97
77218;DHT22;66214;51.302;17.068;2023-03-03T23:09:18;0.60;85.04
